sensor_id;sensor_type;location;lat;lon;timestamp;temperature;humidity
14236;DHT22;7202;50.718;7.072;2023-03-01T00:00:26;-0.60;99.90
14236;DHT22;7202;50.718;7.072;2023-03-01T00:02:56;-1.40;99.90
14236;DHT22;7202;50.718;7.072;2023-03-01T00:05:25;-1.40;99.90
14236;DHT22;7202;50.718;7.072;2023-03-01T00:07:54;-1.40;99.90
14236;DHT22;7202;50.718;7.072;2023-03-01T00:10:25;-1.40;99.90
14236;DHT22;7202;50.718;7.072;2023-03-01T00:12:54;-1.50;99.90
14236;DHT22;7202;50.718;7.072;2023-03-01T00:15:24;-0.60;99.90
14236;DHT22;7202;50.718;7.072;2023-03-01T00:17:52;-1.50;99.90
14236;DHT22;7202;50.718;7.072;2023-03-01T00:20:23;-0.70;99.90
14236;DHT22;7202;50.718;7.072;2023-03-01T00:22:52;-1.50;99.90
14236;DHT22;7202;50.718;7.072;2023-03-01T00:25:21;-0.60;99.90
14236;DHT22;7202;50.718;7.072;2023-03-01T00:27:51;-1.30;99.90
14236;DHT22;7202;50.718;7.072;2023-03-01T00:30:20;-1.50;99.90
14236;DHT22;7202;50.718;7.072;2023-03-01T00:32:49;-1.50;99.90
14236;DHT22;7202;50.718;7.072;2023-03-01T00:35:18;-1.60;99.90
14236;DHT22;7202;50.718;7.072;2023-03-01T00:37:49;-1.20;99.90
14236;DHT22;7202;50.718;7.072;2023-03-01T00:40:25;-1.60;99.90
14236;DHT22;7202;50.718;7.072;2023-03-01T00:42:55;-1.70;99.90
14236;DHT22;7202;50.718;7.072;2023-03-01T00:45:24;-1.60;99.90
14236;DHT22;7202;50.718;7.072;2023-03-01T00:47:54;-1.70;99.90
14236;DHT22;7202;50.718;7.072;2023-03-01T00:50:26;-0.90;99.90
14236;DHT22;7202;50.718;7.072;2023-03-01T00:52:56;-1.60;99.90
14236;DHT22;7202;50.718;7.072;2023-03-01T00:55:28;-1.70;99.90
14236;DHT22;7202;50.718;7.072;2023-03-01T00:58:00;-0.60;99.90
14236;DHT22;7202;50.718;7.072;2023-03-01T01:00:30;-1.80;99.90
14236;DHT22;7202;50.718;7.072;2023-03-01T01:03:00;-1.70;99.90
14236;DHT22;7202;50.718;7.072;2023-03-01T01:05:30;-1.70;99.90
14236;DHT22;7202;50.718;7.072;2023-03-01T01:08:02;-1.70;99.90
14236;DHT22;7202;50.718;7.072;2023-03-01T01:10:33;-2.10;99.90
14236;DHT22;7202;50.718;7.072;2023-03-01T01:13:02;-1.80;99.90
14236;DHT22;7202;50.718;7.072;2023-03-01T01:15:33;-0.90;99.90
14236;DHT22;7202;50.718;7.072;2023-03-01T01:18:04;-1.80;99.90
14236;DHT22;7202;50.718;7.072;2023-03-01T01:20:35;-1.80;99.90
14236;DHT22;7202;50.718;7.072;2023-03-01T01:23:06;-0.80;99.90
14236;DHT22;7202;50.718;7.072;2023-03-01T01:25:36;-1.80;99.90
14236;DHT22;7202;50.718;7.072;2023-03-01T01:28:08;-1.60;99.90
14236;DHT22;7202;50.718;7.072;2023-03-01T01:30:37;-1.90;99.90
14236;DHT22;7202;50.718;7.072;2023-03-01T01:33:06;-1.90;99.90
14236;DHT22;7202;50.718;7.072;2023-03-01T01:35:35;-1.90;99.90
14236;DHT22;7202;50.718;7.072;2023-03-01T01:38:06;-1.90;99.90
14236;DHT22;7202;50.718;7.072;2023-03-01T01:40:43;-1.90;99.90
14236;DHT22;7202;50.718;7.072;2023-03-01T01:43:18;-2.00;99.90
14236;DHT22;7202;50.718;7.072;2023-03-01T01:45:48;-2.00;99.90
14236;DHT22;7202;50.718;7.072;2023-03-01T01:48:21;-2.00;99.90
14236;DHT22;7202;50.718;7.072;2023-03-01T01:50:55;-2.00;99.90
14236;DHT22;7202;50.718;7.072;2023-03-01T01:53:30;-2.00;99.90
14236;DHT22;7202;50.718;7.072;2023-03-01T01:56:01;-2.00;99.90
14236;DHT22;7202;50.718;7.072;2023-03-01T01:58:31;-2.00;99.90
14236;DHT22;7202;50.718;7.072;2023-03-01T02:01:00;-2.10;99.90
14236;DHT22;7202;50.718;7.072;2023-03-01T02:03:33;-1.30;99.90
14236;DHT22;7202;50.718;7.072;2023-03-01T02:06:12;-2.10;99.90
14236;DHT22;7202;50.718;7.072;2023-03-01T02:08:44;-1.30;99.90
14236;DHT22;7202;50.718;7.072;2023-03-01T02:11:14;-1.60;99.90
14236;DHT22;7202;50.718;7.072;2023-03-01T02:13:44;-2.20;99.90
14236;DHT22;7202;50.718;7.072;2023-03-01T02:16:16;-2.20;99.90
14236;DHT22;7202;50.718;7.072;2023-03-01T02:18:49;-1.60;99.90
14236;DHT22;7202;50.718;7.072;2023-03-01T02:21:29;-0.80;99.90
14236;DHT22;7202;50.718;7.072;2023-03-01T02:24:06;-2.20;99.90
14236;DHT22;7202;50.718;7.072;2023-03-01T02:26:45;-2.30;99.90
14236;DHT22;7202;50.718;7.072;2023-03-01T02:29:18;-2.30;99.90
14236;DHT22;7202;50.718;7.072;2023-03-01T02:31:47;-2.10;99.90
14236;DHT22;7202;50.718;7.072;2023-03-01T02:34:17;-2.30;99.90
14236;DHT22;7202;50.718;7.072;2023-03-01T02:36:49;-2.40;99.90
14236;DHT22;7202;50.718;7.072;2023-03-01T02:39:23;-2.10;99.90
14236;DHT22;7202;50.718;7.072;2023-03-01T02:41:56;-2.30;99.90
14236;DHT22;7202;50.718;7.072;2023-03-01T02:44:30;-2.40;99.90
14236;DHT22;7202;50.718;7.072;2023-03-01T02:47:02;-2.40;99.90
14236;DHT22;7202;50.718;7.072;2023-03-01T02:49:34;-2.50;99.90
14236;DHT22;7202;50.718;7.072;2023-03-01T02:52:17;-2.50;99.90
14236;DHT22;7202;50.718;7.072;2023-03-01T02:54:52;-1.70;99.90
14236;DHT22;7202;50.718;7.072;2023-03-01T02:57:28;-2.50;99.90
14236;DHT22;7202;50.718;7.072;2023-03-01T03:00:05;-2.50;99.90
14236;DHT22;7202;50.718;7.072;2023-03-01T03:02:38;-2.60;99.90
14236;DHT22;7202;50.718;7.072;2023-03-01T03:05:23;-2.50;99.90
14236;DHT22;7202;50.718;7.072;2023-03-01T03:07:56;-2.50;99.90
14236;DHT22;7202;50.718;7.072;2023-03-01T03:10:29;-2.50;99.90
14236;DHT22;7202;50.718;7.072;2023-03-01T03:13:01;-2.60;99.90
14236;DHT22;7202;50.718;7.072;2023-03-01T03:15:32;-2.60;99.90
14236;DHT22;7202;50.718;7.072;2023-03-01T03:18:05;-2.60;99.90
14236;DHT22;7202;50.718;7.072;2023-03-01T03:20:34;-2.40;99.90
14236;DHT22;7202;50.718;7.072;2023-03-01T03:23:05;-2.60;99.90
14236;DHT22;7202;50.718;7.072;2023-03-01T03:25:35;-2.60;99.90
14236;DHT22;7202;50.718;7.072;2023-03-01T03:28:06;-2.70;99.90
14236;DHT22;7202;50.718;7.072;2023-03-01T03:30:40;-2.70;99.90
14236;DHT22;7202;50.718;7.072;2023-03-01T03:33:10;-2.70;99.90
14236;DHT22;7202;50.718;7.072;2023-03-01T03:35:43;-2.80;99.90
14236;DHT22;7202;50.718;7.072;2023-03-01T03:38:16;-2.80;99.90
14236;DHT22;7202;50.718;7.072;2023-03-01T03:40:48;-2.80;99.90
14236;DHT22;7202;50.718;7.072;2023-03-01T03:43:20;-2.80;99.90
14236;DHT22;7202;50.718;7.072;2023-03-01T03:45:51;-1.80;99.90
14236;DHT22;7202;50.718;7.072;2023-03-01T03:48:21;-2.20;99.90
14236;DHT22;7202;50.718;7.072;2023-03-01T03:50:53;-2.90;99.90
14236;DHT22;7202;50.718;7.072;2023-03-01T03:53:25;-2.90;99.90
14236;DHT22;7202;50.718;7.072;2023-03-01T03:55:56;-1.80;99.90
14236;DHT22;7202;50.718;7.072;2023-03-01T03:58:27;-2.90;99.90
14236;DHT22;7202;50.718;7.072;2023-03-01T04:00:57;-2.00;99.90
14236;DHT22;7202;50.718;7.072;2023-03-01T04:03:29;-2.80;99.90
14236;DHT22;7202;50.718;7.072;2023-03-01T04:06:00;-2.90;99.90
14236;DHT22;7202;50.718;7.072;2023-03-01T04:08:29;-2.90;99.90
14236;DHT22;7202;50.718;7.072;2023-03-01T04:11:01;-2.70;99.90
14236;DHT22;7202;50.718;7.072;2023-03-01T04:13:53;-2.90;99.90
14236;DHT22;7202;50.718;7.072;2023-03-01T04:16:30;-2.90;99.90
14236;DHT22;7202;50.718;7.072;2023-03-01T04:19:00;-2.90;99.90
14236;DHT22;7202;50.718;7.072;2023-03-01T04:21:29;-3.00;99.90
14236;DHT22;7202;50.718;7.072;2023-03-01T04:24:00;-2.90;99.90
14236;DHT22;7202;50.718;7.072;2023-03-01T04:26:37;-2.90;99.90
14236;DHT22;7202;50.718;7.072;2023-03-01T04:29:08;-2.90;99.90
14236;DHT22;7202;50.718;7.072;2023-03-01T04:31:40;-3.60;99.90
14236;DHT22;7202;50.718;7.072;2023-03-01T04:34:10;-3.10;99.90
14236;DHT22;7202;50.718;7.072;2023-03-01T04:36:42;-2.50;99.90
14236;DHT22;7202;50.718;7.072;2023-03-01T04:39:12;-2.10;99.90
14236;DHT22;7202;50.718;7.072;2023-03-01T04:41:43;-2.20;99.90
14236;DHT22;7202;50.718;7.072;2023-03-01T04:44:32;-2.20;99.90
14236;DHT22;7202;50.718;7.072;2023-03-01T04:47:03;-2.10;99.90
14236;DHT22;7202;50.718;7.072;2023-03-01T04:49:36;-3.00;99.90
14236;DHT22;7202;50.718;7.072;2023-03-01T04:52:05;-3.10;99.90
14236;DHT22;7202;50.718;7.072;2023-03-01T04:54:41;-2.10;99.90
14236;DHT22;7202;50.718;7.072;2023-03-01T04:57:10;-3.10;99.90
14236;DHT22;7202;50.718;7.072;2023-03-01T04:59:39;-3.00;99.90
14236;DHT22;7202;50.718;7.072;2023-03-01T05:02:10;-2.10;99.90
14236;DHT22;7202;50.718;7.072;2023-03-01T05:04:39;-3.10;99.90
14236;DHT22;7202;50.718;7.072;2023-03-01T05:07:08;-2.30;99.90
14236;DHT22;7202;50.718;7.072;2023-03-01T05:09:39;-3.10;99.90
14236;DHT22;7202;50.718;7.072;2023-03-01T05:12:10;-1.90;99.90
14236;DHT22;7202;50.718;7.072;2023-03-01T05:14:40;-3.10;99.90
14236;DHT22;7202;50.718;7.072;2023-03-01T05:17:13;-3.10;99.90
14236;DHT22;7202;50.718;7.072;2023-03-01T05:19:43;-3.20;99.90
14236;DHT22;7202;50.718;7.072;2023-03-01T05:22:13;-3.20;99.90
14236;DHT22;7202;50.718;7.072;2023-03-01T05:24:42;-3.20;99.90
14236;DHT22;7202;50.718;7.072;2023-03-01T05:27:11;-3.20;99.90
14236;DHT22;7202;50.718;7.072;2023-03-01T05:29:42;-3.20;99.90
14236;DHT22;7202;50.718;7.072;2023-03-01T05:32:14;-3.20;99.90
14236;DHT22;7202;50.718;7.072;2023-03-01T05:34:43;-3.10;99.90
14236;DHT22;7202;50.718;7.072;2023-03-01T05:37:14;-3.20;99.90
14236;DHT22;7202;50.718;7.072;2023-03-01T05:39:45;-3.20;99.90
14236;DHT22;7202;50.718;7.072;2023-03-01T05:42:17;-3.30;99.90
14236;DHT22;7202;50.718;7.072;2023-03-01T05:44:46;-3.70;99.90
14236;DHT22;7202;50.718;7.072;2023-03-01T05:47:16;-3.30;99.90
14236;DHT22;7202;50.718;7.072;2023-03-01T05:49:48;-3.40;99.90
14236;DHT22;7202;50.718;7.072;2023-03-01T05:52:17;-3.40;99.90
14236;DHT22;7202;50.718;7.072;2023-03-01T05:54:47;-3.40;99.90
14236;DHT22;7202;50.718;7.072;2023-03-01T05:57:16;-2.60;99.90
14236;DHT22;7202;50.718;7.072;2023-03-01T05:59:45;-3.40;99.90
14236;DHT22;7202;50.718;7.072;2023-03-01T06:02:14;-2.10;99.90
14236;DHT22;7202;50.718;7.072;2023-03-01T06:04:44;-2.60;99.90
14236;DHT22;7202;50.718;7.072;2023-03-01T06:07:17;-2.80;99.90
14236;DHT22;7202;50.718;7.072;2023-03-01T06:09:48;-3.40;99.90
14236;DHT22;7202;50.718;7.072;2023-03-01T06:12:17;-2.30;99.90
14236;DHT22;7202;50.718;7.072;2023-03-01T06:14:46;-3.50;99.90
14236;DHT22;7202;50.718;7.072;2023-03-01T06:17:15;-2.60;99.90
14236;DHT22;7202;50.718;7.072;2023-03-01T06:19:46;-3.50;99.90
14236;DHT22;7202;50.718;7.072;2023-03-01T06:22:15;-2.50;99.90
14236;DHT22;7202;50.718;7.072;2023-03-01T06:24:43;-2.50;99.90
14236;DHT22;7202;50.718;7.072;2023-03-01T06:27:15;-2.70;99.90
14236;DHT22;7202;50.718;7.072;2023-03-01T06:29:44;-3.50;99.90
14236;DHT22;7202;50.718;7.072;2023-03-01T06:32:13;-3.50;99.90
14236;DHT22;7202;50.718;7.072;2023-03-01T06:34:42;-2.70;99.90
14236;DHT22;7202;50.718;7.072;2023-03-01T06:37:13;-3.50;99.90
14236;DHT22;7202;50.718;7.072;2023-03-01T06:39:42;-2.80;99.90
14236;DHT22;7202;50.718;7.072;2023-03-01T06:42:11;-3.50;99.90
14236;DHT22;7202;50.718;7.072;2023-03-01T06:44:45;-2.80;99.90
14236;DHT22;7202;50.718;7.072;2023-03-01T06:47:14;-2.90;99.90
14236;DHT22;7202;50.718;7.072;2023-03-01T06:49:43;-2.80;99.90
14236;DHT22;7202;50.718;7.072;2023-03-01T06:52:17;-2.70;99.90
14236;DHT22;7202;50.718;7.072;2023-03-01T06:54:46;-2.50;99.90
14236;DHT22;7202;50.718;7.072;2023-03-01T06:57:15;-3.40;99.90
14236;DHT22;7202;50.718;7.072;2023-03-01T06:59:44;-3.40;99.90
14236;DHT22;7202;50.718;7.072;2023-03-01T07:02:14;-3.30;99.90
14236;DHT22;7202;50.718;7.072;2023-03-01T07:04:43;-3.30;99.90
14236;DHT22;7202;50.718;7.072;2023-03-01T07:07:12;-3.20;99.90
14236;DHT22;7202;50.718;7.072;2023-03-01T07:09:43;-2.30;99.90
14236;DHT22;7202;50.718;7.072;2023-03-01T07:12:11;-2.10;99.90
14236;DHT22;7202;50.718;7.072;2023-03-01T07:14:40;-2.40;99.90
14236;DHT22;7202;50.718;7.072;2023-03-01T07:17:09;-2.50;99.90
14236;DHT22;7202;50.718;7.072;2023-03-01T07:19:38;-2.90;99.90
14236;DHT22;7202;50.718;7.072;2023-03-01T07:22:07;-2.90;99.90
14236;DHT22;7202;50.718;7.072;2023-03-01T07:24:36;-3.10;99.90
14236;DHT22;7202;50.718;7.072;2023-03-01T07:27:07;-3.00;99.90
14236;DHT22;7202;50.718;7.072;2023-03-01T07:29:36;-2.60;99.90
14236;DHT22;7202;50.718;7.072;2023-03-01T07:32:05;-2.00;99.90
14236;DHT22;7202;50.718;7.072;2023-03-01T07:34:34;-2.90;99.90
14236;DHT22;7202;50.718;7.072;2023-03-01T07:37:03;-2.30;99.90
14236;DHT22;7202;50.718;7.072;2023-03-01T07:39:32;-1.80;99.90
14236;DHT22;7202;50.718;7.072;2023-03-01T07:42:01;-2.70;99.90
14236;DHT22;7202;50.718;7.072;2023-03-01T07:44:32;-1.70;99.90
14236;DHT22;7202;50.718;7.072;2023-03-01T07:47:02;-1.60;99.90
14236;DHT22;7202;50.718;7.072;2023-03-01T07:49:31;-2.40;99.90
14236;DHT22;7202;50.718;7.072;2023-03-01T07:52:00;-1.60;99.90
14236;DHT22;7202;50.718;7.072;2023-03-01T07:54:29;-1.00;99.90
14236;DHT22;7202;50.718;7.072;2023-03-01T07:56:58;-2.20;99.90
14236;DHT22;7202;50.718;7.072;2023-03-01T07:59:27;-1.90;99.90
14236;DHT22;7202;50.718;7.072;2023-03-01T08:02:02;-2.10;99.90
14236;DHT22;7202;50.718;7.072;2023-03-01T08:04:32;-0.90;99.90
14236;DHT22;7202;50.718;7.072;2023-03-01T08:07:04;-1.00;99.90
14236;DHT22;7202;50.718;7.072;2023-03-01T08:09:34;-1.10;99.90
14236;DHT22;7202;50.718;7.072;2023-03-01T08:12:06;-1.00;99.90
14236;DHT22;7202;50.718;7.072;2023-03-01T08:14:47;-1.70;99.90
14236;DHT22;7202;50.718;7.072;2023-03-01T08:17:17;-1.60;99.90
14236;DHT22;7202;50.718;7.072;2023-03-01T08:19:48;-0.40;99.90
14236;DHT22;7202;50.718;7.072;2023-03-01T08:22:17;-1.40;99.90
14236;DHT22;7202;50.718;7.072;2023-03-01T08:24:49;-1.30;99.90
14236;DHT22;7202;50.718;7.072;2023-03-01T08:27:18;-0.40;99.90
14236;DHT22;7202;50.718;7.072;2023-03-01T08:29:49;-0.30;99.90
14236;DHT22;7202;50.718;7.072;2023-03-01T08:32:20;-0.70;99.90
14236;DHT22;7202;50.718;7.072;2023-03-01T08:34:50;-0.10;99.90
14236;DHT22;7202;50.718;7.072;2023-03-01T08:37:25;-1.20;99.90
14236;DHT22;7202;50.718;7.072;2023-03-01T08:39:58;-1.20;99.90
14236;DHT22;7202;50.718;7.072;2023-03-01T08:42:36;-0.30;99.90
14236;DHT22;7202;50.718;7.072;2023-03-01T08:45:08;-0.20;99.90
14236;DHT22;7202;50.718;7.072;2023-03-01T08:47:42;-1.10;99.90
14236;DHT22;7202;50.718;7.072;2023-03-01T08:50:12;-1.10;99.90
14236;DHT22;7202;50.718;7.072;2023-03-01T08:52:49;-0.50;99.90
14236;DHT22;7202;50.718;7.072;2023-03-01T08:55:27;-1.00;99.90
14236;DHT22;7202;50.718;7.072;2023-03-01T08:57:56;-0.30;99.90
14236;DHT22;7202;50.718;7.072;2023-03-01T09:00:36;-0.80;99.90
14236;DHT22;7202;50.718;7.072;2023-03-01T09:03:16;0.30;99.90
14236;DHT22;7202;50.718;7.072;2023-03-01T09:05:49;-0.60;99.90
14236;DHT22;7202;50.718;7.072;2023-03-01T09:08:19;-0.50;99.90
14236;DHT22;7202;50.718;7.072;2023-03-01T09:11:09;0.60;99.90
14236;DHT22;7202;50.718;7.072;2023-03-01T09:13:39;-0.10;99.90
14236;DHT22;7202;50.718;7.072;2023-03-01T09:16:21;-0.20;99.90
14236;DHT22;7202;50.718;7.072;2023-03-01T09:19:14;0.00;99.90
14236;DHT22;7202;50.718;7.072;2023-03-01T09:21:50;0.60;99.90
14236;DHT22;7202;50.718;7.072;2023-03-01T09:24:23;1.00;99.90
14236;DHT22;7202;50.718;7.072;2023-03-01T09:26:54;1.00;99.90
14236;DHT22;7202;50.718;7.072;2023-03-01T09:29:44;1.00;99.90
14236;DHT22;7202;50.718;7.072;2023-03-01T09:32:16;0.70;99.90
14236;DHT22;7202;50.718;7.072;2023-03-01T09:34:51;1.20;99.90
14236;DHT22;7202;50.718;7.072;2023-03-01T09:37:45;1.80;99.90
14236;DHT22;7202;50.718;7.072;2023-03-01T09:40:36;1.40;99.90
14236;DHT22;7202;50.718;7.072;2023-03-01T09:43:31;1.60;99.90
14236;DHT22;7202;50.718;7.072;2023-03-01T09:46:06;1.20;99.90
14236;DHT22;7202;50.718;7.072;2023-03-01T09:49:19;1.90;99.90
14236;DHT22;7202;50.718;7.072;2023-03-01T09:52:39;1.50;99.90
14236;DHT22;7202;50.718;7.072;2023-03-01T09:55:54;2.90;99.90
14236;DHT22;7202;50.718;7.072;2023-03-01T09:58:57;2.30;99.90
14236;DHT22;7202;50.718;7.072;2023-03-01T10:01:33;2.50;99.90
14236;DHT22;7202;50.718;7.072;2023-03-01T10:04:43;2.50;99.90
14236;DHT22;7202;50.718;7.072;2023-03-01T10:07:26;2.80;99.90
14236;DHT22;7202;50.718;7.072;2023-03-01T10:09:59;3.70;99.90
14236;DHT22;7202;50.718;7.072;2023-03-01T10:12:35;2.60;99.90
14236;DHT22;7202;50.718;7.072;2023-03-01T10:15:34;1.90;99.90
14236;DHT22;7202;50.718;7.072;2023-03-01T10:18:53;2.90;99.90
14236;DHT22;7202;50.718;7.072;2023-03-01T10:22:02;3.10;99.90
14236;DHT22;7202;50.718;7.072;2023-03-01T10:24:45;3.20;99.90
14236;DHT22;7202;50.718;7.072;2023-03-01T10:27:34;3.30;99.90
14236;DHT22;7202;50.718;7.072;2023-03-01T10:30:30;2.90;99.90
14236;DHT22;7202;50.718;7.072;2023-03-01T10:34:00;3.50;99.90
14236;DHT22;7202;50.718;7.072;2023-03-01T10:36:33;3.50;99.90
14236;DHT22;7202;50.718;7.072;2023-03-01T10:39:20;4.30;99.90
14236;DHT22;7202;50.718;7.072;2023-03-01T10:42:03;4.80;99.90
14236;DHT22;7202;50.718;7.072;2023-03-01T10:44:42;4.30;99.90
14236;DHT22;7202;50.718;7.072;2023-03-01T10:47:22;4.30;99.90
14236;DHT22;7202;50.718;7.072;2023-03-01T10:49:58;4.10;99.90
14236;DHT22;7202;50.718;7.072;2023-03-01T10:52:34;4.20;99.90
14236;DHT22;7202;50.718;7.072;2023-03-01T10:55:26;5.10;99.90
14236;DHT22;7202;50.718;7.072;2023-03-01T10:58:18;4.40;99.90
14236;DHT22;7202;50.718;7.072;2023-03-01T11:00:52;5.30;99.90
14236;DHT22;7202;50.718;7.072;2023-03-01T11:03:24;4.90;99.90
14236;DHT22;7202;50.718;7.072;2023-03-01T11:06:04;4.70;99.90
14236;DHT22;7202;50.718;7.072;2023-03-01T11:08:45;5.30;99.90
14236;DHT22;7202;50.718;7.072;2023-03-01T11:11:23;5.50;99.90
14236;DHT22;7202;50.718;7.072;2023-03-01T11:13:56;5.30;99.90
14236;DHT22;7202;50.718;7.072;2023-03-01T11:16:31;6.00;99.90
14236;DHT22;7202;50.718;7.072;2023-03-01T11:19:13;5.80;99.90
14236;DHT22;7202;50.718;7.072;2023-03-01T11:21:49;4.90;99.90
14236;DHT22;7202;50.718;7.072;2023-03-01T11:24:25;5.00;99.90
14236;DHT22;7202;50.718;7.072;2023-03-01T11:26:56;5.10;99.90
14236;DHT22;7202;50.718;7.072;2023-03-01T11:29:30;5.10;99.90
14236;DHT22;7202;50.718;7.072;2023-03-01T11:32:15;6.30;99.90
14236;DHT22;7202;50.718;7.072;2023-03-01T11:34:49;5.30;99.90
14236;DHT22;7202;50.718;7.072;2023-03-01T11:37:26;5.70;99.90
14236;DHT22;7202;50.718;7.072;2023-03-01T11:40:05;5.40;99.90
14236;DHT22;7202;50.718;7.072;2023-03-01T11:42:48;5.40;99.90
14236;DHT22;7202;50.718;7.072;2023-03-01T11:45:21;5.50;99.90
14236;DHT22;7202;50.718;7.072;2023-03-01T11:48:02;5.70;99.90
14236;DHT22;7202;50.718;7.072;2023-03-01T11:50:40;6.10;99.90
14236;DHT22;7202;50.718;7.072;2023-03-01T11:53:30;5.70;99.90
14236;DHT22;7202;50.718;7.072;2023-03-01T11:56:15;6.80;99.90
14236;DHT22;7202;50.718;7.072;2023-03-01T11:59:16;6.00;99.90
14236;DHT22;7202;50.718;7.072;2023-03-01T12:02:12;6.00;99.90
14236;DHT22;7202;50.718;7.072;2023-03-01T12:05:08;6.10;99.90
14236;DHT22;7202;50.718;7.072;2023-03-01T12:07:46;6.20;99.90
14236;DHT22;7202;50.718;7.072;2023-03-01T12:10:23;6.30;99.90
14236;DHT22;7202;50.718;7.072;2023-03-01T12:16:16;6.40;99.90
14236;DHT22;7202;50.718;7.072;2023-03-01T12:19:31;5.70;99.90
14236;DHT22;7202;50.718;7.072;2023-03-01T12:22:29;6.50;99.90
14236;DHT22;7202;50.718;7.072;2023-03-01T12:25:16;7.40;99.90
14236;DHT22;7202;50.718;7.072;2023-03-01T12:28:14;6.70;99.90
14236;DHT22;7202;50.718;7.072;2023-03-01T12:31:02;6.70;99.90
14236;DHT22;7202;50.718;7.072;2023-03-01T12:33:43;6.90;99.90
14236;DHT22;7202;50.718;7.072;2023-03-01T12:36:30;7.80;99.90
14236;DHT22;7202;50.718;7.072;2023-03-01T12:39:23;7.00;99.90
14236;DHT22;7202;50.718;7.072;2023-03-01T12:42:02;8.50;99.90
14236;DHT22;7202;50.718;7.072;2023-03-01T12:44:46;7.90;99.90
14236;DHT22;7202;50.718;7.072;2023-03-01T12:47:35;6.70;99.90
14236;DHT22;7202;50.718;7.072;2023-03-01T12:50:14;7.60;99.90
14236;DHT22;7202;50.718;7.072;2023-03-01T12:52:50;8.10;99.90
14236;DHT22;7202;50.718;7.072;2023-03-01T12:55:37;7.90;99.90
14236;DHT22;7202;50.718;7.072;2023-03-01T12:58:16;7.10;99.90
14236;DHT22;7202;50.718;7.072;2023-03-01T13:01:05;7.30;99.90
14236;DHT22;7202;50.718;7.072;2023-03-01T13:03:51;7.40;99.90
14236;DHT22;7202;50.718;7.072;2023-03-01T13:06:31;8.20;99.90
14236;DHT22;7202;50.718;7.072;2023-03-01T13:09:18;7.40;99.90
14236;DHT22;7202;50.718;7.072;2023-03-01T13:11:50;7.40;99.90
14236;DHT22;7202;50.718;7.072;2023-03-01T13:14:45;7.40;99.90
14236;DHT22;7202;50.718;7.072;2023-03-01T13:17:33;7.40;99.90
14236;DHT22;7202;50.718;7.072;2023-03-01T13:20:15;7.40;99.90
14236;DHT22;7202;50.718;7.072;2023-03-01T13:22:47;8.30;99.90
14236;DHT22;7202;50.718;7.072;2023-03-01T13:25:22;7.70;99.90
14236;DHT22;7202;50.718;7.072;2023-03-01T13:34:41;7.70;99.90
14236;DHT22;7202;50.718;7.072;2023-03-01T13:37:24;7.80;99.90
14236;DHT22;7202;50.718;7.072;2023-03-01T13:43:26;7.80;99.90
14236;DHT22;7202;50.718;7.072;2023-03-01T13:45:58;7.90;99.90
14236;DHT22;7202;50.718;7.072;2023-03-01T13:48:36;7.90;99.90
14236;DHT22;7202;50.718;7.072;2023-03-01T13:51:23;7.90;99.90
14236;DHT22;7202;50.718;7.072;2023-03-01T13:53:58;8.90;99.90
14236;DHT22;7202;50.718;7.072;2023-03-01T13:56:36;8.30;99.90
14236;DHT22;7202;50.718;7.072;2023-03-01T13:59:14;8.10;99.90
14236;DHT22;7202;50.718;7.072;2023-03-01T14:01:53;9.00;99.90
14236;DHT22;7202;50.718;7.072;2023-03-01T14:04:28;8.10;99.90
14236;DHT22;7202;50.718;7.072;2023-03-01T14:07:10;8.20;99.90
14236;DHT22;7202;50.718;7.072;2023-03-01T14:09:43;8.30;99.90
14236;DHT22;7202;50.718;7.072;2023-03-01T14:12:22;8.20;99.90
14236;DHT22;7202;50.718;7.072;2023-03-01T14:14:59;8.20;99.90
14236;DHT22;7202;50.718;7.072;2023-03-01T14:17:50;8.40;99.90
14236;DHT22;7202;50.718;7.072;2023-03-01T14:20:27;8.30;99.90
14236;DHT22;7202;50.718;7.072;2023-03-01T14:22:59;8.90;99.90
14236;DHT22;7202;50.718;7.072;2023-03-01T14:25:51;8.40;99.90
14236;DHT22;7202;50.718;7.072;2023-03-01T14:28:24;8.40;99.90
14236;DHT22;7202;50.718;7.072;2023-03-01T14:30:55;9.10;99.90
14236;DHT22;7202;50.718;7.072;2023-03-01T14:33:26;8.90;99.90
14236;DHT22;7202;50.718;7.072;2023-03-01T14:35:58;8.80;99.90
14236;DHT22;7202;50.718;7.072;2023-03-01T14:38:31;8.20;99.90
14236;DHT22;7202;50.718;7.072;2023-03-01T14:41:04;8.90;99.90
14236;DHT22;7202;50.718;7.072;2023-03-01T14:43:36;8.20;99.90
14236;DHT22;7202;50.718;7.072;2023-03-01T14:46:06;8.90;99.90
14236;DHT22;7202;50.718;7.072;2023-03-01T14:48:35;8.30;99.90
14236;DHT22;7202;50.718;7.072;2023-03-01T14:51:06;9.00;99.90
14236;DHT22;7202;50.718;7.072;2023-03-01T14:53:36;8.80;99.90
14236;DHT22;7202;50.718;7.072;2023-03-01T14:56:17;9.10;99.90
14236;DHT22;7202;50.718;7.072;2023-03-01T14:58:50;9.30;99.90
14236;DHT22;7202;50.718;7.072;2023-03-01T15:01:21;9.00;99.90
14236;DHT22;7202;50.718;7.072;2023-03-01T15:03:51;8.10;99.90
14236;DHT22;7202;50.718;7.072;2023-03-01T15:06:22;8.50;99.90
14236;DHT22;7202;50.718;7.072;2023-03-01T15:08:53;9.10;99.90
14236;DHT22;7202;50.718;7.072;2023-03-01T15:11:27;8.50;99.90
14236;DHT22;7202;50.718;7.072;2023-03-01T15:13:58;8.50;99.90
14236;DHT22;7202;50.718;7.072;2023-03-01T15:16:29;9.20;99.90
14236;DHT22;7202;50.718;7.072;2023-03-01T15:19:01;8.60;99.90
14236;DHT22;7202;50.718;7.072;2023-03-01T15:21:34;9.10;99.90
14236;DHT22;7202;50.718;7.072;2023-03-01T15:24:06;9.00;99.90
14236;DHT22;7202;50.718;7.072;2023-03-01T15:26:50;8.70;99.90
14236;DHT22;7202;50.718;7.072;2023-03-01T15:29:24;8.70;99.90
14236;DHT22;7202;50.718;7.072;2023-03-01T15:31:55;9.50;99.90
14236;DHT22;7202;50.718;7.072;2023-03-01T15:34:27;8.60;99.90
14236;DHT22;7202;50.718;7.072;2023-03-01T15:36:59;9.50;99.90
14236;DHT22;7202;50.718;7.072;2023-03-01T15:39:35;9.40;99.90
14236;DHT22;7202;50.718;7.072;2023-03-01T15:42:09;8.60;99.90
14236;DHT22;7202;50.718;7.072;2023-03-01T15:44:40;8.50;99.90
14236;DHT22;7202;50.718;7.072;2023-03-01T15:47:25;8.50;99.90
14236;DHT22;7202;50.718;7.072;2023-03-01T15:49:55;8.40;99.90
14236;DHT22;7202;50.718;7.072;2023-03-01T15:52:28;8.80;99.90
14236;DHT22;7202;50.718;7.072;2023-03-01T15:55:00;8.40;99.90
14236;DHT22;7202;50.718;7.072;2023-03-01T15:57:30;8.70;99.90
14236;DHT22;7202;50.718;7.072;2023-03-01T15:59:59;9.00;99.90
14236;DHT22;7202;50.718;7.072;2023-03-01T16:02:34;8.40;99.90
14236;DHT22;7202;50.718;7.072;2023-03-01T16:05:04;8.40;99.90
14236;DHT22;7202;50.718;7.072;2023-03-01T16:07:34;8.40;99.90
14236;DHT22;7202;50.718;7.072;2023-03-01T16:10:07;8.30;99.90
14236;DHT22;7202;50.718;7.072;2023-03-01T16:12:36;8.30;99.90
14236;DHT22;7202;50.718;7.072;2023-03-01T16:15:13;9.30;99.90
14236;DHT22;7202;50.718;7.072;2023-03-01T16:17:47;7.90;99.90
14236;DHT22;7202;50.718;7.072;2023-03-01T16:20:22;8.40;99.90
14236;DHT22;7202;50.718;7.072;2023-03-01T16:23:03;8.20;99.90
14236;DHT22;7202;50.718;7.072;2023-03-01T16:25:34;9.20;99.90
14236;DHT22;7202;50.718;7.072;2023-03-01T16:28:04;8.00;99.90
14236;DHT22;7202;50.718;7.072;2023-03-01T16:30:38;8.10;99.90
14236;DHT22;7202;50.718;7.072;2023-03-01T16:33:12;9.00;99.90
14236;DHT22;7202;50.718;7.072;2023-03-01T16:36:01;8.00;99.90
14236;DHT22;7202;50.718;7.072;2023-03-01T16:38:32;7.80;99.90
14236;DHT22;7202;50.718;7.072;2023-03-01T16:41:04;8.40;99.90
14236;DHT22;7202;50.718;7.072;2023-03-01T16:43:35;7.70;99.90
14236;DHT22;7202;50.718;7.072;2023-03-01T16:46:10;6.90;99.90
14236;DHT22;7202;50.718;7.072;2023-03-01T16:48:40;7.50;99.90
14236;DHT22;7202;50.718;7.072;2023-03-01T16:51:10;7.40;99.90
14236;DHT22;7202;50.718;7.072;2023-03-01T16:53:42;8.10;99.90
14236;DHT22;7202;50.718;7.072;2023-03-01T16:56:15;7.50;99.90